| time (UTC) | temp F | wind direction | speed MPH | gust MPH | rain 1hr in | rain 24hr in | rain mn in | humidity % | barometer mb |
| 20260507190014 | 65 | 195 | 9.0 | 19.0 | 0.00 | 0.00 | 0.00 | 53 | 1013.3 |
| 20260507184508 | 65 | 202 | 4.0 | 12.0 | 0.00 | 0.00 | 0.00 | 54 | 1013.4 |
| 20260507183011 | 64 | 360 | 7.0 | 20.0 | 0.00 | 0.00 | 0.00 | 56 | 1013.7 |
| 20260507181507 | 64 | 360 | 6.0 | 15.0 | 0.00 | 0.00 | 0.00 | 56 | 1013.9 |
| 20260507180004 | 64 | 360 | 4.0 | 15.0 | 0.00 | 0.00 | 0.00 | 58 | 1014.1 |
| 20260507174603 | 63 | 360 | 6.0 | 18.0 | 0.00 | 0.00 | 0.00 | 55 | 1014.5 |
| 20260507173129 | 63 | 360 | 3.0 | 17.0 | 0.00 | 0.00 | 0.00 | 58 | 1014.8 |
| 20260507171557 | 62 | 360 | 7.0 | 18.0 | 0.00 | 0.00 | 0.00 | 57 | 1014.9 |
| 20260507170050 | 62 | 360 | 5.0 | 17.0 | 0.00 | 0.00 | 0.00 | 57 | 1015.2 |
| 20260507164549 | 62 | 360 | 7.0 | 14.0 | 0.00 | 0.00 | 0.00 | 58 | 1015.4 |
| 20260507163045 | 61 | 360 | 7.0 | 14.0 | 0.00 | 0.00 | 0.00 | 59 | 1015.8 |
| 20260507161549 | 61 | 360 | 7.0 | 14.0 | 0.00 | 0.00 | 0.00 | 58 | 1015.7 |
| 20260507160049 | 60 | 360 | 5.0 | 13.0 | 0.00 | 0.00 | 0.00 | 61 | 1015.8 |
| 20260507154541 | 60 | 360 | 4.0 | 14.0 | 0.00 | 0.00 | 0.00 | 64 | 1016.0 |
| 20260507153035 | 58 | 360 | 6.0 | 18.0 | 0.00 | 0.00 | 0.00 | 63 | 1016.1 |
| 20260507151534 | 58 | 360 | 4.0 | 10.0 | 0.00 | 0.00 | 0.00 | 65 | 1016.1 |
| 20260507150037 | 57 | 360 | 5.0 | 13.0 | 0.00 | 0.00 | 0.00 | 66 | 1016.3 |
| 20260507144527 | 56 | 360 | 5.0 | 12.0 | 0.00 | 0.00 | 0.00 | 67 | 1016.5 |
| 20260507143025 | 55 | 360 | 3.0 | 13.0 | 0.00 | 0.00 | 0.00 | 69 | 1016.6 |
| 20260507141521 | 55 | 360 | 4.0 | 9.0 | 0.00 | 0.00 | 0.00 | 70 | 1016.6 |
| 20260507140020 | 54 | 360 | 3.0 | 10.0 | 0.00 | 0.00 | 0.00 | 73 | 1016.8 |
| 20260507134517 | 53 | 360 | 5.0 | 10.0 | 0.00 | 0.00 | 0.00 | 75 | 1016.8 |
| 20260507133017 | 51 | 360 | 3.0 | 8.0 | 0.00 | 0.00 | 0.00 | 79 | 1016.6 |
| 20260507131511 | 49 | 360 | 2.0 | 7.0 | 0.00 | 0.00 | 0.00 | 81 | 1016.8 |
| 20260507130004 | 48 | 360 | 2.0 | 6.0 | 0.00 | 0.00 | 0.00 | 82 | 1017.0 |
| 20260507124504 | 47 | 360 | 2.0 | 6.0 | 0.00 | 0.00 | 0.00 | 83 | 1017.1 |
| 20260507123002 | 46 | 360 | 1.0 | 5.0 | 0.00 | 0.00 | 0.00 | 83 | 1017.1 |
| 20260507121502 | 45 | 237 | 2.0 | 5.0 | 0.00 | 0.00 | 0.00 | 85 | 1017.0 |
| 20260507120004 | 43 | 313 | 1.0 | 4.0 | 0.00 | 0.00 | 0.00 | 86 | 1017.0 |
| 20260507114502 | 43 | 295 | 1.0 | 4.0 | 0.00 | 0.00 | 0.00 | 87 | 1017.0 |
| 20260507113100 | 42 | 308 | 1.0 | 4.0 | 0.00 | 0.00 | 0.00 | 87 | 1016.9 |
| 20260507111607 | 41 | 304 | 1.0 | 4.0 | 0.00 | 0.00 | 0.00 | 88 | 1016.8 |
| 20260507104601 | 41 | 309 | 0.0 | 1.0 | 0.00 | 0.00 | 0.00 | 87 | 1016.8 |
| 20260507103058 | 41 | 309 | 0.0 | 1.0 | 0.00 | 0.00 | 0.00 | 86 | 1016.8 |
| 20260507101554 | 42 | 309 | 0.0 | 1.0 | 0.00 | 0.00 | 0.00 | 84 | 1017.0 |
| 20260507100053 | 42 | 309 | 0.0 | 1.0 | 0.00 | 0.00 | 0.00 | 82 | 1017.0 |
| 20260507094558 | 43 | 309 | 0.0 | 3.0 | 0.00 | 0.00 | 0.00 | 81 | 1017.1 |
| 20260507093048 | 43 | 309 | 0.0 | 0.0 | 0.00 | 0.00 | 0.00 | 80 | 1017.2 |
| 20260507091547 | 43 | 309 | 0.0 | 0.0 | 0.00 | 0.00 | 0.00 | 79 | 1017.2 |
| 20260507090046 | 44 | 295 | 0.0 | 0.0 | 0.00 | 0.00 | 0.00 | 79 | 1017.3 |
| 20260507084547 | 44 | 294 | 0.0 | 2.0 | 0.00 | 0.00 | 0.00 | 78 | 1017.3 |
| 20260507083044 | 44 | 296 | 0.0 | 2.0 | 0.00 | 0.00 | 0.00 | 78 | 1017.4 |
| 20260507081544 | 44 | 292 | 0.0 | 2.0 | 0.00 | 0.00 | 0.00 | 79 | 1017.4 |
| 20260507080045 | 44 | 313 | 0.0 | 0.0 | 0.00 | 0.00 | 0.00 | 79 | 1017.5 |
| 20260507074546 | 45 | 313 | 0.0 | 0.0 | 0.00 | 0.00 | 0.00 | 77 | 1017.5 |
| 20260507073043 | 45 | 313 | 0.0 | 2.0 | 0.00 | 0.00 | 0.00 | 74 | 1017.5 |
| 20260507071538 | 46 | 313 | 0.0 | 2.0 | 0.00 | 0.00 | 0.00 | 73 | 1017.7 |
| 20260507070044 | 46 | 321 | 0.0 | 2.0 | 0.00 | 0.00 | 0.00 | 72 | 1017.8 |
| 20260507064541 | 47 | 315 | 0.0 | 0.0 | 0.00 | 0.00 | 0.00 | 72 | 1017.9 |
| 20260507063035 | 47 | 316 | 0.0 | 2.0 | 0.00 | 0.00 | 0.00 | 71 | 1017.9 |
| 20260507061531 | 47 | 317 | 0.0 | 3.0 | 0.00 | 0.00 | 0.00 | 70 | 1018.1 |
| 20260507060029 | 47 | 317 | 0.0 | 2.0 | 0.00 | 0.00 | 0.00 | 72 | 1018.1 |
| 20260507054525 | 46 | 306 | 0.0 | 2.0 | 0.00 | 0.00 | 0.00 | 79 | 1018.2 |
| 20260507053023 | 45 | 306 | 0.0 | 0.0 | 0.00 | 0.03 | 0.00 | 85 | 1018.2 |
| 20260507051523 | 45 | 306 | 0.0 | 0.0 | 0.00 | 0.03 | 0.00 | 86 | 1018.1 |
| 20260507050028 | 44 | 306 | 0.0 | 0.0 | 0.00 | 0.03 | 0.00 | 86 | 1018.1 |
| 20260507044522 | 44 | 306 | 0.0 | 0.0 | 0.00 | 0.03 | 0.00 | 85 | 1018.1 |
| 20260507043021 | 43 | 306 | 0.0 | 0.0 | 0.00 | 0.03 | 0.00 | 84 | 1018.2 |
| 20260507041521 | 43 | 306 | 0.0 | 0.0 | 0.00 | 0.03 | 0.00 | 84 | 1018.1 |
| 20260507040020 | 43 | 306 | 0.0 | 0.0 | 0.00 | 0.03 | 0.00 | 83 | 1018.3 |
| 20260507034522 | 43 | 306 | 0.0 | 1.0 | 0.00 | 0.03 | 0.00 | 83 | 1018.4 |
| 20260507033027 | 42 | 306 | 0.0 | 2.0 | 0.00 | 0.03 | 0.00 | 83 | 1018.4 |
| 20260507031524 | 43 | 306 | 0.0 | 0.0 | 0.00 | 0.03 | 0.00 | 82 | 1018.3 |
| 20260507030019 | 43 | 306 | 0.0 | 0.0 | 0.00 | 0.03 | 0.00 | 81 | 1018.3 |
| 20260507024521 | 44 | 306 | 0.0 | 0.0 | 0.00 | 0.03 | 0.00 | 80 | 1018.2 |
| 20260507023017 | 44 | 306 | 0.0 | 0.0 | 0.00 | 0.03 | 0.00 | 78 | 1018.1 |
| 20260507021517 | 45 | 306 | 0.0 | 0.0 | 0.00 | 0.03 | 0.00 | 77 | 1017.9 |
| 20260507020022 | 47 | 306 | 0.0 | 2.0 | 0.00 | 0.03 | 0.00 | 74 | 1017.8 |
| 20260507014520 | 48 | 306 | 0.0 | 2.0 | 0.00 | 0.03 | 0.00 | 70 | 1017.7 |
| 20260507013017 | 50 | 306 | 0.0 | 0.0 | 0.00 | 0.03 | 0.00 | 65 | 1017.6 |
| 20260507011527 | 52 | 306 | 1.0 | 2.0 | 0.00 | 0.03 | 0.00 | 57 | 1017.6 |
| 20260507010018 | 56 | 360 | 1.0 | 2.0 | 0.00 | 0.03 | 0.00 | 50 | 1017.4 |
| 20260507004514 | 60 | 360 | 0.0 | 2.0 | 0.00 | 0.03 | 0.00 | 43 | 1017.4 |
| 20260507003013 | 61 | 360 | 1.0 | 4.0 | 0.00 | 0.03 | 0.00 | 36 | 1017.5 |
| 20260507001519 | 61 | 360 | 0.0 | 8.0 | 0.00 | 0.03 | 0.00 | 38 | 1017.4 |
| 20260507000015 | 61 | 88 | 1.0 | 4.0 | 0.00 | 0.03 | 0.00 | 35 | 1017.5 |
| 20260506234512 | 61 | 360 | 4.0 | 9.0 | 0.00 | 0.03 | 0.00 | 34 | 1017.6 |
| 20260506233012 | 61 | 355 | 4.0 | 9.0 | 0.00 | 0.03 | 0.00 | 34 | 1017.6 |
| 20260506231511 | 61 | 11 | 2.0 | 10.0 | 0.00 | 0.03 | 0.00 | 37 | 1017.6 |
| 20260506230011 | 61 | 300 | 3.0 | 12.0 | 0.00 | 0.03 | 0.00 | 34 | 1017.6 |
| 20260506224511 | 61 | 360 | 4.0 | 10.0 | 0.00 | 0.03 | 0.00 | 34 | 1017.6 |
| 20260506223015 | 61 | 360 | 5.0 | 11.0 | 0.00 | 0.03 | 0.00 | 34 | 1017.7 |
| 20260506221508 | 61 | 355 | 4.0 | 9.0 | 0.00 | 0.03 | 0.00 | 35 | 1017.7 |
| 20260506220009 | 60 | 192 | 3.0 | 8.0 | 0.00 | 0.03 | 0.00 | 34 | 1017.8 |
| 20260506214508 | 61 | 360 | 3.0 | 6.0 | 0.00 | 0.03 | 0.00 | 35 | 1017.8 |
| 20260506213006 | 60 | 360 | 5.0 | 12.0 | 0.00 | 0.03 | 0.00 | 34 | 1018.2 |
| 20260506211505 | 62 | 313 | 2.0 | 8.0 | 0.00 | 0.03 | 0.00 | 35 | 1018.3 |
| 20260506210012 | 61 | 360 | 2.0 | 8.0 | 0.00 | 0.03 | 0.00 | 35 | 1018.5 |
| 20260506204505 | 61 | 360 | 4.0 | 9.0 | 0.00 | 0.03 | 0.00 | 35 | 1018.8 |
| 20260506203006 | 60 | 360 | 4.0 | 13.0 | 0.00 | 0.03 | 0.00 | 37 | 1019.0 |
| 20260506201503 | 60 | 360 | 6.0 | 12.0 | 0.00 | 0.03 | 0.00 | 34 | 1019.1 |
| 20260506200002 | 60 | 360 | 4.0 | 10.0 | 0.00 | 0.03 | 0.00 | 37 | 1019.2 |
| 20260506194559 | 59 | 360 | 4.0 | 15.0 | 0.00 | 0.03 | 0.00 | 37 | 1019.3 |
| 20260506193058 | 58 | 360 | 3.0 | 8.0 | 0.00 | 0.03 | 0.00 | 37 | 1019.4 |
| 20260506191556 | 59 | 360 | 6.0 | 13.0 | 0.00 | 0.03 | 0.00 | 37 | 1019.4 |